createdAt,value
2019-06-01T00:01:48.807Z,15.29
2019-06-01T00:07:54.869Z,15.18
2019-06-01T00:14:00.953Z,15.13
2019-06-01T00:20:06.928Z,15.00
2019-06-01T00:26:12.942Z,14.99
2019-06-01T00:32:19.083Z,14.96
2019-06-01T00:38:25.099Z,14.81
2019-06-01T00:44:31.139Z,14.64
2019-06-01T00:50:36.927Z,14.62
2019-06-01T00:56:43.463Z,14.57
2019-06-01T01:02:50.277Z,14.49
2019-06-01T01:08:56.412Z,14.36
2019-06-01T01:15:02.635Z,14.40
2019-06-01T01:21:08.567Z,14.28
2019-06-01T01:27:14.980Z,14.27
2019-06-01T01:33:20.944Z,14.21
2019-06-01T01:39:26.863Z,14.10
2019-06-01T01:45:32.620Z,14.08
2019-06-01T01:51:38.307Z,14.10
2019-06-01T01:57:45.534Z,13.97
2019-06-01T02:03:53.231Z,13.91
2019-06-01T02:09:59.308Z,13.86
2019-06-01T02:16:05.060Z,13.82
2019-06-01T02:22:10.945Z,13.74
2019-06-01T02:28:16.715Z,13.68
2019-06-01T02:34:22.886Z,13.67
2019-06-01T02:40:29.041Z,13.62
2019-06-01T02:46:35.966Z,13.58
2019-06-01T02:52:42.299Z,13.59
2019-06-01T02:58:48.124Z,13.54
2019-06-01T03:04:53.868Z,13.54
2019-06-01T03:11:01.910Z,13.51
2019-06-01T03:17:09.893Z,13.52
2019-06-01T03:23:18.854Z,13.56
2019-06-01T03:29:29.733Z,13.64
2019-06-01T03:35:37.142Z,13.60
2019-06-01T03:41:43.854Z,13.62
2019-06-01T03:47:49.538Z,13.67
2019-06-01T03:53:55.671Z,13.76
2019-06-01T04:00:03.303Z,13.83
2019-06-01T04:06:09.477Z,13.89
2019-06-01T04:12:15.544Z,13.96
2019-06-01T04:18:21.407Z,14.08
2019-06-01T04:24:27.705Z,14.20
2019-06-01T04:30:35.198Z,14.30
2019-06-01T04:36:41.415Z,14.37
2019-06-01T04:42:47.462Z,14.55
2019-06-01T04:48:53.518Z,14.63
2019-06-01T04:54:59.525Z,14.67
2019-06-01T05:01:05.492Z,14.69
2019-06-01T05:07:11.291Z,14.76
2019-06-01T05:13:17.011Z,14.83
2019-06-01T05:19:22.763Z,14.98
2019-06-01T05:25:28.519Z,15.19
2019-06-01T05:31:34.256Z,15.51
2019-06-01T05:37:42.775Z,15.83
2019-06-01T05:43:48.516Z,16.19
2019-06-01T05:49:54.245Z,16.55
2019-06-01T05:55:59.984Z,16.84
2019-06-01T06:02:05.705Z,17.07
2019-06-01T06:08:12.719Z,17.30
2019-06-01T06:14:20.643Z,17.53
2019-06-01T06:20:26.767Z,17.76
2019-06-01T06:26:32.472Z,17.97
2019-06-01T06:32:38.974Z,18.17
2019-06-01T06:38:45.685Z,18.41
2019-06-01T06:44:51.601Z,18.62
2019-06-01T06:50:57.322Z,18.83
2019-06-01T06:57:03.122Z,19.15
2019-06-01T07:03:08.832Z,19.48
2019-06-01T07:09:14.568Z,19.77
2019-06-01T07:15:23.394Z,19.94
2019-06-01T07:21:29.494Z,20.16
2019-06-01T07:27:35.424Z,20.25
2019-06-01T07:33:41.144Z,20.40
2019-06-01T07:39:47.331Z,20.54
2019-06-01T07:45:53.512Z,20.63
2019-06-01T07:52:11.201Z,20.73
2019-06-01T07:58:07.419Z,20.90
2019-06-01T08:04:13.276Z,21.03
2019-06-01T08:10:18.991Z,21.11
2019-06-01T08:16:25.920Z,21.22
2019-06-01T08:22:32.211Z,21.43
2019-06-01T08:28:38.031Z,21.56
2019-06-01T08:34:44.307Z,21.69
2019-06-01T08:40:50.597Z,21.89
2019-06-01T08:46:56.509Z,22.09
2019-06-01T08:53:02.406Z,22.20
2019-06-01T08:59:08.568Z,22.35
2019-06-01T09:05:23.958Z,22.35
2019-06-01T09:11:23.346Z,22.62
2019-06-01T09:17:29.509Z,22.56
2019-06-01T09:23:37.477Z,22.71
2019-06-01T09:29:44.793Z,22.79
2019-06-01T09:35:56.040Z,22.92
2019-06-01T09:41:59.118Z,23.18
2019-06-01T09:48:05.131Z,23.42
2019-06-01T09:54:12.254Z,23.49
2019-06-01T10:00:18.689Z,23.48
2019-06-01T10:06:24.526Z,23.43
2019-06-01T10:12:31.787Z,23.81
2019-06-01T10:18:39.012Z,24.10
2019-06-01T10:24:44.794Z,24.18
2019-06-01T10:30:50.577Z,24.33
2019-06-01T10:36:56.702Z,24.45
2019-06-01T10:43:02.701Z,24.68
2019-06-01T10:49:08.857Z,24.79
2019-06-01T10:55:15.154Z,24.88
2019-06-01T11:01:21.266Z,24.88
2019-06-01T11:07:27.849Z,25.02
2019-06-01T11:13:35.012Z,25.18
2019-06-01T11:19:42.019Z,25.19
2019-06-01T11:25:48.447Z,25.31
2019-06-01T11:31:54.445Z,25.57
2019-06-01T11:38:00.453Z,25.70
2019-06-01T11:44:06.652Z,25.97
2019-06-01T11:50:15.290Z,26.02
2019-06-01T11:56:21.674Z,26.15
2019-06-01T12:02:27.751Z,26.29
2019-06-01T12:08:34.333Z,26.29
2019-06-01T12:14:42.561Z,26.47
2019-06-01T12:20:48.753Z,26.69
2019-06-01T12:26:55.225Z,26.86
2019-06-01T12:33:01.529Z,27.00
2019-06-01T12:39:10.167Z,26.99
2019-06-01T12:45:22.833Z,27.18
2019-06-01T12:51:27.811Z,27.28
2019-06-01T12:57:34.399Z,27.43
2019-06-01T13:03:41.158Z,27.52
2019-06-01T13:09:48.585Z,27.76
2019-06-01T13:15:54.758Z,27.74
2019-06-01T13:22:01.104Z,27.90
2019-06-01T13:28:07.233Z,27.89
2019-06-01T13:34:13.880Z,27.89
2019-06-01T13:40:20.525Z,27.95
2019-06-01T13:46:33.068Z,28.27
2019-06-01T13:52:39.256Z,28.36
2019-06-01T13:58:46.332Z,28.40
2019-06-01T14:04:54.095Z,28.38
2019-06-01T14:11:00.270Z,28.54
2019-06-01T14:17:06.375Z,28.60
2019-06-01T14:23:12.505Z,28.86
2019-06-01T14:29:18.540Z,29.24
2019-06-01T14:35:26.052Z,29.61
2019-06-01T14:41:32.379Z,29.87
2019-06-01T14:47:39.097Z,30.09
2019-06-01T14:53:45.351Z,30.30
2019-06-01T14:59:51.981Z,30.60
2019-06-01T15:05:58.604Z,30.79
2019-06-01T15:12:05.318Z,31.12
2019-06-01T15:18:11.782Z,30.93
2019-06-01T15:24:18.156Z,31.02
2019-06-01T15:30:24.586Z,31.30
2019-06-01T15:36:30.789Z,31.64
2019-06-01T15:42:36.800Z,31.68
2019-06-01T15:48:42.939Z,31.72
2019-06-01T15:54:49.030Z,31.94
2019-06-01T16:00:55.114Z,31.62
2019-06-01T16:07:01.480Z,31.60
2019-06-01T16:13:07.591Z,31.58
2019-06-01T16:19:14.098Z,31.79
2019-06-01T16:25:20.288Z,31.97
2019-06-01T16:31:26.338Z,31.97
2019-06-01T16:37:32.666Z,31.99
2019-06-01T16:43:38.911Z,32.32
2019-06-01T16:49:45.060Z,32.28
2019-06-01T16:55:51.178Z,32.54
2019-06-01T17:01:58.824Z,32.62
2019-06-01T17:08:07.034Z,32.40
2019-06-01T17:14:13.411Z,31.91
2019-06-01T17:20:48.825Z,31.48
2019-06-01T17:26:54.861Z,31.13
2019-06-01T17:33:00.816Z,30.82
2019-06-01T17:39:08.908Z,30.34
2019-06-01T17:45:15.561Z,30.00
2019-06-01T17:51:23.433Z,29.66
2019-06-01T17:57:29.562Z,29.39
2019-06-01T18:03:35.707Z,29.39
2019-06-01T18:09:41.975Z,29.13
2019-06-01T18:15:50.113Z,28.86
2019-06-01T18:21:55.998Z,28.46
2019-06-01T18:28:02.814Z,28.00
2019-06-01T18:34:09.653Z,27.75
2019-06-01T18:40:16.914Z,27.59
2019-06-01T18:46:23.346Z,27.47
2019-06-01T18:52:30.034Z,27.21
2019-06-01T18:58:36.345Z,26.83
2019-06-01T19:04:42.486Z,26.53
2019-06-01T19:10:49.359Z,26.34
2019-06-01T19:16:55.941Z,26.14
2019-06-01T19:23:02.195Z,25.75
2019-06-01T19:29:08.824Z,25.45
2019-06-01T19:35:15.339Z,25.29
2019-06-01T19:41:21.675Z,25.02
2019-06-01T19:47:27.684Z,24.71
2019-06-01T19:53:33.771Z,24.46
2019-06-01T19:59:39.938Z,24.11
2019-06-01T20:05:46.116Z,23.91
2019-06-01T20:12:01.258Z,23.72
2019-06-01T20:18:00.208Z,23.36
2019-06-01T20:24:06.121Z,23.15
2019-06-01T20:30:14.174Z,23.04
2019-06-01T20:36:20.525Z,22.87
2019-06-01T20:42:32.255Z,22.70
2019-06-01T20:48:34.746Z,22.44
2019-06-01T20:54:40.957Z,22.24
2019-06-01T21:00:47.066Z,22.02
2019-06-01T21:06:54.172Z,21.97
2019-06-01T21:13:00.334Z,21.90
2019-06-01T21:19:06.411Z,21.89
2019-06-01T21:25:12.766Z,21.79
2019-06-01T21:31:18.972Z,21.50
2019-06-01T21:37:24.948Z,21.23
2019-06-01T21:43:35.130Z,21.21
2019-06-01T21:49:38.878Z,21.00
2019-06-01T21:55:44.908Z,20.91
2019-06-01T22:01:50.838Z,20.75
2019-06-01T22:07:56.786Z,20.59
2019-06-01T22:14:02.807Z,20.41
2019-06-01T22:20:08.985Z,20.24
2019-06-01T22:26:14.852Z,20.08
2019-06-01T22:32:24.498Z,19.96
2019-06-01T22:38:28.582Z,19.87
2019-06-01T22:44:34.319Z,19.75
2019-06-01T22:50:40.309Z,19.65
2019-06-01T22:56:46.535Z,19.58
2019-06-01T23:02:52.659Z,19.48
2019-06-01T23:08:58.509Z,19.48
2019-06-01T23:15:04.366Z,19.42
2019-06-01T23:21:10.119Z,19.32
2019-06-01T23:27:15.913Z,19.20
2019-06-01T23:33:22.736Z,19.01
2019-06-01T23:39:30.755Z,18.95
2019-06-01T23:45:36.720Z,18.72
2019-06-01T23:51:42.696Z,18.67
2019-06-01T23:57:48.678Z,18.61
